sensor_id;sensor_type;location;lat;lon;timestamp;P1;durP1;ratioP1;P2;durP2;ratioP2
68886;SDS011;55925;51.764;6.402;2023-07-13T00:02:10;6.45;;;2.40;;
68886;SDS011;55925;51.764;6.402;2023-07-13T00:04:36;5.97;;;2.03;;
68886;SDS011;55925;51.764;6.402;2023-07-13T00:07:02;8.43;;;2.50;;
68886;SDS011;55925;51.764;6.402;2023-07-13T00:09:28;6.00;;;2.00;;
68886;SDS011;55925;51.764;6.402;2023-07-13T00:11:55;6.00;;;2.10;;
68886;SDS011;55925;51.764;6.402;2023-07-13T00:14:22;8.48;;;2.28;;
68886;SDS011;55925;51.764;6.402;2023-07-13T00:16:48;7.65;;;2.08;;
68886;SDS011;55925;51.764;6.402;2023-07-13T00:19:14;7.28;;;2.25;;
68886;SDS011;55925;51.764;6.402;2023-07-13T00:21:41;7.82;;;2.95;;
68886;SDS011;55925;51.764;6.402;2023-07-13T00:24:07;6.53;;;2.10;;
68886;SDS011;55925;51.764;6.402;2023-07-13T00:26:33;8.20;;;2.65;;
68886;SDS011;55925;51.764;6.402;2023-07-13T00:28:59;5.43;;;2.13;;
68886;SDS011;55925;51.764;6.402;2023-07-13T00:31:25;5.85;;;1.85;;
68886;SDS011;55925;51.764;6.402;2023-07-13T00:33:51;5.38;;;1.90;;
68886;SDS011;55925;51.764;6.402;2023-07-13T00:36:19;7.28;;;2.00;;
68886;SDS011;55925;51.764;6.402;2023-07-13T00:38:45;6.68;;;1.83;;
68886;SDS011;55925;51.764;6.402;2023-07-13T00:41:11;4.57;;;2.33;;
68886;SDS011;55925;51.764;6.402;2023-07-13T00:43:37;9.13;;;2.15;;
68886;SDS011;55925;51.764;6.402;2023-07-13T00:46:17;5.20;;;1.73;;
68886;SDS011;55925;51.764;6.402;2023-07-13T00:48:44;10.50;;;2.70;;
68886;SDS011;55925;51.764;6.402;2023-07-13T00:51:11;5.88;;;2.03;;
68886;SDS011;55925;51.764;6.402;2023-07-13T00:53:38;7.25;;;2.20;;
68886;SDS011;55925;51.764;6.402;2023-07-13T00:56:04;5.90;;;2.20;;
68886;SDS011;55925;51.764;6.402;2023-07-13T00:58:31;5.68;;;2.30;;
68886;SDS011;55925;51.764;6.402;2023-07-13T01:00:57;8.15;;;2.72;;
68886;SDS011;55925;51.764;6.402;2023-07-13T01:03:23;7.90;;;1.98;;
68886;SDS011;55925;51.764;6.402;2023-07-13T01:05:49;7.85;;;1.80;;
68886;SDS011;55925;51.764;6.402;2023-07-13T01:08:19;4.78;;;2.10;;
68886;SDS011;55925;51.764;6.402;2023-07-13T01:10:54;7.22;;;1.60;;
68886;SDS011;55925;51.764;6.402;2023-07-13T01:13:20;7.15;;;1.80;;
68886;SDS011;55925;51.764;6.402;2023-07-13T01:15:47;7.38;;;2.75;;
68886;SDS011;55925;51.764;6.402;2023-07-13T01:18:23;4.35;;;2.03;;
68886;SDS011;55925;51.764;6.402;2023-07-13T01:20:51;6.28;;;1.42;;
68886;SDS011;55925;51.764;6.402;2023-07-13T01:23:18;7.95;;;2.10;;
68886;SDS011;55925;51.764;6.402;2023-07-13T01:25:44;5.30;;;2.10;;
68886;SDS011;55925;51.764;6.402;2023-07-13T01:28:10;7.30;;;2.60;;
68886;SDS011;55925;51.764;6.402;2023-07-13T01:30:37;5.78;;;1.90;;
68886;SDS011;55925;51.764;6.402;2023-07-13T01:33:05;6.43;;;1.92;;
68886;SDS011;55925;51.764;6.402;2023-07-13T01:35:32;4.25;;;1.95;;
68886;SDS011;55925;51.764;6.402;2023-07-13T01:37:58;5.75;;;2.10;;
68886;SDS011;55925;51.764;6.402;2023-07-13T01:40:26;5.57;;;1.65;;
68886;SDS011;55925;51.764;6.402;2023-07-13T01:42:52;6.20;;;1.80;;
68886;SDS011;55925;51.764;6.402;2023-07-13T01:45:18;6.32;;;1.80;;
68886;SDS011;55925;51.764;6.402;2023-07-13T01:47:44;4.95;;;2.10;;
68886;SDS011;55925;51.764;6.402;2023-07-13T01:50:10;5.03;;;2.00;;
68886;SDS011;55925;51.764;6.402;2023-07-13T01:52:36;5.07;;;1.70;;
68886;SDS011;55925;51.764;6.402;2023-07-13T01:55:02;7.68;;;3.42;;
68886;SDS011;55925;51.764;6.402;2023-07-13T01:57:28;6.28;;;2.38;;
68886;SDS011;55925;51.764;6.402;2023-07-13T01:59:54;6.20;;;2.08;;
68886;SDS011;55925;51.764;6.402;2023-07-13T02:02:20;5.38;;;2.05;;
68886;SDS011;55925;51.764;6.402;2023-07-13T02:04:46;6.97;;;1.92;;
68886;SDS011;55925;51.764;6.402;2023-07-13T02:07:12;5.80;;;2.13;;
68886;SDS011;55925;51.764;6.402;2023-07-13T02:09:38;5.03;;;1.73;;
68886;SDS011;55925;51.764;6.402;2023-07-13T02:12:04;6.28;;;1.73;;
68886;SDS011;55925;51.764;6.402;2023-07-13T02:14:30;5.90;;;2.30;;
68886;SDS011;55925;51.764;6.402;2023-07-13T02:16:56;7.00;;;1.77;;
68886;SDS011;55925;51.764;6.402;2023-07-13T02:19:22;6.53;;;2.25;;
68886;SDS011;55925;51.764;6.402;2023-07-13T02:21:48;8.18;;;1.85;;
68886;SDS011;55925;51.764;6.402;2023-07-13T02:24:14;5.10;;;1.60;;
68886;SDS011;55925;51.764;6.402;2023-07-13T02:26:42;5.63;;;1.90;;
68886;SDS011;55925;51.764;6.402;2023-07-13T02:29:09;4.95;;;1.98;;
68886;SDS011;55925;51.764;6.402;2023-07-13T02:31:35;8.45;;;2.10;;
68886;SDS011;55925;51.764;6.402;2023-07-13T02:34:01;7.07;;;2.15;;
68886;SDS011;55925;51.764;6.402;2023-07-13T02:36:27;8.32;;;2.22;;
68886;SDS011;55925;51.764;6.402;2023-07-13T02:38:54;8.18;;;2.20;;
68886;SDS011;55925;51.764;6.402;2023-07-13T02:41:20;4.32;;;1.80;;
68886;SDS011;55925;51.764;6.402;2023-07-13T02:43:47;8.38;;;1.70;;
68886;SDS011;55925;51.764;6.402;2023-07-13T02:46:14;6.63;;;2.85;;
68886;SDS011;55925;51.764;6.402;2023-07-13T02:48:40;11.63;;;2.53;;
68886;SDS011;55925;51.764;6.402;2023-07-13T02:51:06;6.38;;;1.85;;
68886;SDS011;55925;51.764;6.402;2023-07-13T02:53:33;7.22;;;2.00;;
68886;SDS011;55925;51.764;6.402;2023-07-13T02:56:00;7.95;;;2.05;;
68886;SDS011;55925;51.764;6.402;2023-07-13T02:58:27;9.77;;;2.42;;
68886;SDS011;55925;51.764;6.402;2023-07-13T03:00:52;6.20;;;2.08;;
68886;SDS011;55925;51.764;6.402;2023-07-13T03:03:18;6.25;;;2.20;;
68886;SDS011;55925;51.764;6.402;2023-07-13T03:05:45;4.70;;;1.80;;
68886;SDS011;55925;51.764;6.402;2023-07-13T03:08:15;9.75;;;2.05;;
68886;SDS011;55925;51.764;6.402;2023-07-13T03:10:41;4.10;;;2.05;;
68886;SDS011;55925;51.764;6.402;2023-07-13T03:13:07;5.25;;;1.50;;
68886;SDS011;55925;51.764;6.402;2023-07-13T03:15:33;5.07;;;2.15;;
68886;SDS011;55925;51.764;6.402;2023-07-13T03:17:59;5.75;;;1.75;;
68886;SDS011;55925;51.764;6.402;2023-07-13T03:20:25;6.47;;;2.15;;
68886;SDS011;55925;51.764;6.402;2023-07-13T03:22:51;4.63;;;2.00;;
68886;SDS011;55925;51.764;6.402;2023-07-13T03:25:17;7.18;;;2.83;;
68886;SDS011;55925;51.764;6.402;2023-07-13T03:27:43;6.50;;;1.90;;
68886;SDS011;55925;51.764;6.402;2023-07-13T03:30:09;7.38;;;2.05;;
68886;SDS011;55925;51.764;6.402;2023-07-13T03:32:35;8.20;;;2.10;;
68886;SDS011;55925;51.764;6.402;2023-07-13T03:35:01;8.88;;;2.20;;
68886;SDS011;55925;51.764;6.402;2023-07-13T03:37:27;7.25;;;2.40;;
68886;SDS011;55925;51.764;6.402;2023-07-13T03:39:53;5.15;;;2.00;;
68886;SDS011;55925;51.764;6.402;2023-07-13T03:42:19;5.90;;;2.03;;
68886;SDS011;55925;51.764;6.402;2023-07-13T03:44:45;7.00;;;2.60;;
68886;SDS011;55925;51.764;6.402;2023-07-13T03:47:17;7.57;;;2.10;;
68886;SDS011;55925;51.764;6.402;2023-07-13T03:49:43;7.65;;;1.80;;
68886;SDS011;55925;51.764;6.402;2023-07-13T03:52:10;6.43;;;2.53;;
68886;SDS011;55925;51.764;6.402;2023-07-13T03:54:36;9.63;;;2.80;;
68886;SDS011;55925;51.764;6.402;2023-07-13T03:57:02;8.88;;;2.35;;
68886;SDS011;55925;51.764;6.402;2023-07-13T03:59:28;8.38;;;2.25;;
68886;SDS011;55925;51.764;6.402;2023-07-13T04:01:54;5.95;;;2.50;;
68886;SDS011;55925;51.764;6.402;2023-07-13T04:04:20;7.95;;;2.35;;
68886;SDS011;55925;51.764;6.402;2023-07-13T04:06:46;4.53;;;1.90;;
68886;SDS011;55925;51.764;6.402;2023-07-13T04:09:12;9.88;;;2.65;;
68886;SDS011;55925;51.764;6.402;2023-07-13T04:11:38;7.13;;;2.13;;
68886;SDS011;55925;51.764;6.402;2023-07-13T04:14:05;6.75;;;2.67;;
68886;SDS011;55925;51.764;6.402;2023-07-13T04:16:31;5.53;;;1.88;;
68886;SDS011;55925;51.764;6.402;2023-07-13T04:18:57;7.82;;;2.08;;
68886;SDS011;55925;51.764;6.402;2023-07-13T04:21:25;11.65;;;2.25;;
68886;SDS011;55925;51.764;6.402;2023-07-13T04:23:52;7.07;;;2.33;;
68886;SDS011;55925;51.764;6.402;2023-07-13T04:26:18;9.45;;;2.10;;
68886;SDS011;55925;51.764;6.402;2023-07-13T04:28:46;7.05;;;1.92;;
68886;SDS011;55925;51.764;6.402;2023-07-13T04:31:12;8.15;;;2.50;;
68886;SDS011;55925;51.764;6.402;2023-07-13T04:33:38;5.45;;;2.15;;
68886;SDS011;55925;51.764;6.402;2023-07-13T04:36:04;7.60;;;2.22;;
68886;SDS011;55925;51.764;6.402;2023-07-13T04:38:31;7.88;;;1.90;;
68886;SDS011;55925;51.764;6.402;2023-07-13T04:41:02;9.95;;;2.50;;
68886;SDS011;55925;51.764;6.402;2023-07-13T04:43:29;7.00;;;2.10;;
68886;SDS011;55925;51.764;6.402;2023-07-13T04:45:55;6.93;;;2.53;;
68886;SDS011;55925;51.764;6.402;2023-07-13T04:48:21;7.35;;;2.45;;
68886;SDS011;55925;51.764;6.402;2023-07-13T04:50:53;6.93;;;2.38;;
68886;SDS011;55925;51.764;6.402;2023-07-13T04:53:19;7.55;;;2.28;;
68886;SDS011;55925;51.764;6.402;2023-07-13T04:55:45;6.18;;;2.72;;
68886;SDS011;55925;51.764;6.402;2023-07-13T04:58:12;14.50;;;2.60;;
68886;SDS011;55925;51.764;6.402;2023-07-13T05:00:38;7.78;;;2.47;;
68886;SDS011;55925;51.764;6.402;2023-07-13T05:03:04;7.13;;;2.10;;
68886;SDS011;55925;51.764;6.402;2023-07-13T05:05:30;6.07;;;2.25;;
68886;SDS011;55925;51.764;6.402;2023-07-13T05:07:56;7.35;;;3.00;;
68886;SDS011;55925;51.764;6.402;2023-07-13T05:10:23;7.40;;;2.30;;
68886;SDS011;55925;51.764;6.402;2023-07-13T05:12:49;8.07;;;2.10;;
68886;SDS011;55925;51.764;6.402;2023-07-13T05:15:15;5.95;;;2.47;;
68886;SDS011;55925;51.764;6.402;2023-07-13T05:17:45;7.45;;;1.90;;
68886;SDS011;55925;51.764;6.402;2023-07-13T05:20:11;9.48;;;2.55;;
68886;SDS011;55925;51.764;6.402;2023-07-13T05:22:37;7.45;;;2.10;;
68886;SDS011;55925;51.764;6.402;2023-07-13T05:25:04;7.30;;;2.58;;
68886;SDS011;55925;51.764;6.402;2023-07-13T05:27:31;6.32;;;2.65;;
68886;SDS011;55925;51.764;6.402;2023-07-13T05:29:57;9.55;;;2.60;;
68886;SDS011;55925;51.764;6.402;2023-07-13T05:32:23;10.50;;;3.20;;
68886;SDS011;55925;51.764;6.402;2023-07-13T05:34:49;8.45;;;3.03;;
68886;SDS011;55925;51.764;6.402;2023-07-13T05:37:15;9.98;;;2.70;;
68886;SDS011;55925;51.764;6.402;2023-07-13T05:39:41;8.80;;;2.92;;
68886;SDS011;55925;51.764;6.402;2023-07-13T05:42:07;9.57;;;3.47;;
68886;SDS011;55925;51.764;6.402;2023-07-13T05:44:33;11.77;;;4.13;;
68886;SDS011;55925;51.764;6.402;2023-07-13T05:46:59;11.60;;;3.53;;
68886;SDS011;55925;51.764;6.402;2023-07-13T05:49:25;10.02;;;4.25;;
68886;SDS011;55925;51.764;6.402;2023-07-13T05:51:51;7.65;;;3.38;;
68886;SDS011;55925;51.764;6.402;2023-07-13T05:54:17;10.75;;;4.78;;
68886;SDS011;55925;51.764;6.402;2023-07-13T05:56:43;9.70;;;4.57;;
68886;SDS011;55925;51.764;6.402;2023-07-13T05:59:09;10.38;;;4.32;;
68886;SDS011;55925;51.764;6.402;2023-07-13T06:01:35;11.27;;;4.57;;
68886;SDS011;55925;51.764;6.402;2023-07-13T06:04:01;13.02;;;3.65;;
68886;SDS011;55925;51.764;6.402;2023-07-13T06:06:27;17.40;;;5.32;;
68886;SDS011;55925;51.764;6.402;2023-07-13T06:08:53;13.70;;;5.00;;
68886;SDS011;55925;51.764;6.402;2023-07-13T06:11:20;14.18;;;6.15;;
68886;SDS011;55925;51.764;6.402;2023-07-13T06:13:47;10.48;;;4.45;;
68886;SDS011;55925;51.764;6.402;2023-07-13T06:16:13;17.70;;;5.75;;
68886;SDS011;55925;51.764;6.402;2023-07-13T06:18:39;13.93;;;4.95;;
68886;SDS011;55925;51.764;6.402;2023-07-13T06:21:12;12.88;;;5.32;;
68886;SDS011;55925;51.764;6.402;2023-07-13T06:23:38;13.93;;;5.68;;
68886;SDS011;55925;51.764;6.402;2023-07-13T06:26:05;14.50;;;5.80;;
68886;SDS011;55925;51.764;6.402;2023-07-13T06:28:31;15.60;;;5.60;;
68886;SDS011;55925;51.764;6.402;2023-07-13T06:30:58;15.05;;;6.20;;
68886;SDS011;55925;51.764;6.402;2023-07-13T06:33:24;14.68;;;6.03;;
68886;SDS011;55925;51.764;6.402;2023-07-13T06:35:50;15.57;;;5.80;;
68886;SDS011;55925;51.764;6.402;2023-07-13T06:38:16;14.30;;;6.35;;
68886;SDS011;55925;51.764;6.402;2023-07-13T06:40:42;16.15;;;6.60;;
68886;SDS011;55925;51.764;6.402;2023-07-13T06:43:08;29.10;;;6.80;;
68886;SDS011;55925;51.764;6.402;2023-07-13T06:45:41;16.30;;;6.30;;
68886;SDS011;55925;51.764;6.402;2023-07-13T06:48:07;14.77;;;6.45;;
68886;SDS011;55925;51.764;6.402;2023-07-13T06:50:33;17.02;;;6.72;;
68886;SDS011;55925;51.764;6.402;2023-07-13T06:52:59;15.30;;;7.22;;
68886;SDS011;55925;51.764;6.402;2023-07-13T06:55:26;20.55;;;7.30;;
68886;SDS011;55925;51.764;6.402;2023-07-13T06:57:52;15.18;;;6.28;;
68886;SDS011;55925;51.764;6.402;2023-07-13T07:00:18;17.25;;;6.70;;
68886;SDS011;55925;51.764;6.402;2023-07-13T07:02:44;19.55;;;8.02;;
68886;SDS011;55925;51.764;6.402;2023-07-13T07:05:10;15.88;;;6.28;;
68886;SDS011;55925;51.764;6.402;2023-07-13T07:07:36;20.85;;;6.45;;
68886;SDS011;55925;51.764;6.402;2023-07-13T07:10:02;19.85;;;6.20;;
68886;SDS011;55925;51.764;6.402;2023-07-13T07:12:28;20.77;;;7.30;;
68886;SDS011;55925;51.764;6.402;2023-07-13T07:14:54;15.15;;;5.78;;
68886;SDS011;55925;51.764;6.402;2023-07-13T07:17:20;12.27;;;5.78;;
68886;SDS011;55925;51.764;6.402;2023-07-13T07:19:46;18.23;;;7.53;;
68886;SDS011;55925;51.764;6.402;2023-07-13T07:22:12;17.00;;;5.82;;
68886;SDS011;55925;51.764;6.402;2023-07-13T07:24:38;15.98;;;7.22;;
68886;SDS011;55925;51.764;6.402;2023-07-13T07:27:04;17.33;;;6.30;;
68886;SDS011;55925;51.764;6.402;2023-07-13T07:29:30;18.52;;;6.70;;
68886;SDS011;55925;51.764;6.402;2023-07-13T07:31:56;16.55;;;6.95;;
68886;SDS011;55925;51.764;6.402;2023-07-13T07:34:22;23.50;;;7.18;;
68886;SDS011;55925;51.764;6.402;2023-07-13T07:36:48;15.63;;;6.95;;
68886;SDS011;55925;51.764;6.402;2023-07-13T07:39:14;13.95;;;5.70;;
68886;SDS011;55925;51.764;6.402;2023-07-13T07:41:41;20.60;;;6.43;;
68886;SDS011;55925;51.764;6.402;2023-07-13T07:44:07;18.20;;;6.55;;
68886;SDS011;55925;51.764;6.402;2023-07-13T07:46:35;13.90;;;5.80;;
68886;SDS011;55925;51.764;6.402;2023-07-13T07:49:01;16.33;;;5.88;;
68886;SDS011;55925;51.764;6.402;2023-07-13T07:51:27;11.35;;;5.80;;
68886;SDS011;55925;51.764;6.402;2023-07-13T07:53:53;16.00;;;5.68;;
68886;SDS011;55925;51.764;6.402;2023-07-13T07:56:19;14.73;;;5.05;;
68886;SDS011;55925;51.764;6.402;2023-07-13T07:58:45;12.60;;;5.05;;
68886;SDS011;55925;51.764;6.402;2023-07-13T08:01:11;14.80;;;4.82;;
68886;SDS011;55925;51.764;6.402;2023-07-13T08:03:37;13.25;;;5.30;;
68886;SDS011;55925;51.764;6.402;2023-07-13T08:06:03;12.88;;;5.50;;
68886;SDS011;55925;51.764;6.402;2023-07-13T08:08:29;17.10;;;5.50;;
68886;SDS011;55925;51.764;6.402;2023-07-13T08:10:55;14.00;;;5.03;;
68886;SDS011;55925;51.764;6.402;2023-07-13T08:13:21;13.02;;;5.55;;
68886;SDS011;55925;51.764;6.402;2023-07-13T08:15:47;16.45;;;6.00;;
68886;SDS011;55925;51.764;6.402;2023-07-13T08:18:14;15.07;;;6.20;;
68886;SDS011;55925;51.764;6.402;2023-07-13T08:20:40;14.70;;;5.78;;
68886;SDS011;55925;51.764;6.402;2023-07-13T08:23:07;12.38;;;5.80;;
68886;SDS011;55925;51.764;6.402;2023-07-13T08:27:25;18.88;;;5.78;;
68886;SDS011;55925;51.764;6.402;2023-07-13T08:29:52;12.52;;;5.35;;
68886;SDS011;55925;51.764;6.402;2023-07-13T08:32:19;12.75;;;5.35;;
68886;SDS011;55925;51.764;6.402;2023-07-13T08:34:45;12.70;;;6.00;;
68886;SDS011;55925;51.764;6.402;2023-07-13T08:37:11;11.70;;;6.40;;
68886;SDS011;55925;51.764;6.402;2023-07-13T08:39:37;14.02;;;6.10;;
68886;SDS011;55925;51.764;6.402;2023-07-13T08:44:49;14.48;;;5.70;;
68886;SDS011;55925;51.764;6.402;2023-07-13T08:47:20;14.18;;;6.05;;
68886;SDS011;55925;51.764;6.402;2023-07-13T08:49:46;14.90;;;5.90;;
68886;SDS011;55925;51.764;6.402;2023-07-13T08:54:43;13.60;;;4.93;;
68886;SDS011;55925;51.764;6.402;2023-07-13T08:57:13;13.73;;;5.30;;
68886;SDS011;55925;51.764;6.402;2023-07-13T08:59:39;14.38;;;5.07;;
68886;SDS011;55925;51.764;6.402;2023-07-13T09:04:34;14.50;;;5.30;;
68886;SDS011;55925;51.764;6.402;2023-07-13T09:15:04;10.73;;;5.03;;
68886;SDS011;55925;51.764;6.402;2023-07-13T09:17:48;11.65;;;4.25;;
68886;SDS011;55925;51.764;6.402;2023-07-13T09:20:23;9.93;;;4.15;;
68886;SDS011;55925;51.764;6.402;2023-07-13T09:22:52;12.55;;;4.70;;
68886;SDS011;55925;51.764;6.402;2023-07-13T09:25:29;13.02;;;4.63;;
68886;SDS011;55925;51.764;6.402;2023-07-13T09:27:57;14.18;;;4.22;;
68886;SDS011;55925;51.764;6.402;2023-07-13T09:30:37;9.48;;;3.95;;
68886;SDS011;55925;51.764;6.402;2023-07-13T09:33:05;12.70;;;4.07;;
68886;SDS011;55925;51.764;6.402;2023-07-13T09:35:31;9.70;;;4.18;;
68886;SDS011;55925;51.764;6.402;2023-07-13T09:37:58;10.77;;;3.90;;
68886;SDS011;55925;51.764;6.402;2023-07-13T09:40:28;10.05;;;4.28;;
68886;SDS011;55925;51.764;6.402;2023-07-13T09:42:56;13.85;;;4.28;;
68886;SDS011;55925;51.764;6.402;2023-07-13T09:45:27;12.75;;;4.15;;
68886;SDS011;55925;51.764;6.402;2023-07-13T09:47:58;14.93;;;5.05;;
68886;SDS011;55925;51.764;6.402;2023-07-13T09:50:24;9.40;;;3.75;;
68886;SDS011;55925;51.764;6.402;2023-07-13T09:52:51;10.55;;;4.43;;
68886;SDS011;55925;51.764;6.402;2023-07-13T09:55:26;10.02;;;3.83;;
68886;SDS011;55925;51.764;6.402;2023-07-13T09:57:52;8.60;;;3.50;;
68886;SDS011;55925;51.764;6.402;2023-07-13T10:00:28;13.30;;;4.35;;
68886;SDS011;55925;51.764;6.402;2023-07-13T10:02:58;13.07;;;3.75;;
68886;SDS011;55925;51.764;6.402;2023-07-13T10:05:25;9.23;;;3.55;;
68886;SDS011;55925;51.764;6.402;2023-07-13T10:07:51;9.40;;;3.42;;
68886;SDS011;55925;51.764;6.402;2023-07-13T10:10:20;7.97;;;4.15;;
68886;SDS011;55925;51.764;6.402;2023-07-13T10:12:48;7.65;;;3.38;;
68886;SDS011;55925;51.764;6.402;2023-07-13T10:15:15;6.57;;;2.65;;
68886;SDS011;55925;51.764;6.402;2023-07-13T10:17:41;8.63;;;3.30;;
68886;SDS011;55925;51.764;6.402;2023-07-13T10:20:09;7.50;;;3.58;;
68886;SDS011;55925;51.764;6.402;2023-07-13T10:25:17;7.88;;;2.70;;
68886;SDS011;55925;51.764;6.402;2023-07-13T10:27:44;7.85;;;2.50;;
68886;SDS011;55925;51.764;6.402;2023-07-13T10:30:15;6.25;;;2.55;;
68886;SDS011;55925;51.764;6.402;2023-07-13T10:32:43;7.68;;;2.72;;
68886;SDS011;55925;51.764;6.402;2023-07-13T10:35:10;7.03;;;2.60;;
68886;SDS011;55925;51.764;6.402;2023-07-13T10:37:51;9.20;;;2.55;;
68886;SDS011;55925;51.764;6.402;2023-07-13T10:40:21;6.22;;;2.75;;
68886;SDS011;55925;51.764;6.402;2023-07-13T10:42:49;8.88;;;2.58;;
68886;SDS011;55925;51.764;6.402;2023-07-13T10:45:17;7.22;;;2.65;;
68886;SDS011;55925;51.764;6.402;2023-07-13T10:47:44;8.68;;;2.30;;
68886;SDS011;55925;51.764;6.402;2023-07-13T10:50:15;7.32;;;2.20;;
68886;SDS011;55925;51.764;6.402;2023-07-13T10:52:47;6.45;;;2.35;;
68886;SDS011;55925;51.764;6.402;2023-07-13T10:55:32;7.57;;;2.78;;
68886;SDS011;55925;51.764;6.402;2023-07-13T10:58:01;10.00;;;2.80;;
68886;SDS011;55925;51.764;6.402;2023-07-13T11:00:30;8.18;;;2.83;;
68886;SDS011;55925;51.764;6.402;2023-07-13T11:02:58;9.25;;;2.80;;
68886;SDS011;55925;51.764;6.402;2023-07-13T11:05:29;9.70;;;3.00;;
68886;SDS011;55925;51.764;6.402;2023-07-13T11:10:53;8.50;;;2.65;;
68886;SDS011;55925;51.764;6.402;2023-07-13T11:13:39;5.85;;;2.58;;
68886;SDS011;55925;51.764;6.402;2023-07-13T11:21:30;7.60;;;2.95;;
68886;SDS011;55925;51.764;6.402;2023-07-13T11:29:27;6.13;;;2.47;;
68886;SDS011;55925;51.764;6.402;2023-07-13T11:31:59;6.45;;;2.85;;
68886;SDS011;55925;51.764;6.402;2023-07-13T11:36:52;11.38;;;5.18;;
68886;SDS011;55925;51.764;6.402;2023-07-13T11:39:24;15.05;;;5.95;;
68886;SDS011;55925;51.764;6.402;2023-07-13T11:41:57;11.82;;;5.95;;
68886;SDS011;55925;51.764;6.402;2023-07-13T11:44:24;12.50;;;5.90;;
68886;SDS011;55925;51.764;6.402;2023-07-13T11:46:52;15.38;;;5.55;;
68886;SDS011;55925;51.764;6.402;2023-07-13T11:49:19;11.57;;;6.07;;
68886;SDS011;55925;51.764;6.402;2023-07-13T11:51:45;10.75;;;5.72;;
68886;SDS011;55925;51.764;6.402;2023-07-13T11:54:29;13.00;;;6.63;;
68886;SDS011;55925;51.764;6.402;2023-07-13T11:56:57;16.20;;;7.45;;
68886;SDS011;55925;51.764;6.402;2023-07-13T11:59:25;11.63;;;6.78;;
68886;SDS011;55925;51.764;6.402;2023-07-13T12:01:52;15.00;;;6.75;;
68886;SDS011;55925;51.764;6.402;2023-07-13T12:04:23;9.73;;;5.53;;
68886;SDS011;55925;51.764;6.402;2023-07-13T12:07:04;8.45;;;5.00;;
68886;SDS011;55925;51.764;6.402;2023-07-13T12:09:30;9.60;;;5.40;;
68886;SDS011;55925;51.764;6.402;2023-07-13T12:11:57;15.13;;;5.80;;
68886;SDS011;55925;51.764;6.402;2023-07-13T12:14:26;11.20;;;4.68;;
68886;SDS011;55925;51.764;6.402;2023-07-13T12:16:52;7.00;;;3.30;;
68886;SDS011;55925;51.764;6.402;2023-07-13T12:19:20;11.07;;;4.15;;
68886;SDS011;55925;51.764;6.402;2023-07-13T12:21:46;8.23;;;3.65;;
68886;SDS011;55925;51.764;6.402;2023-07-13T12:24:13;5.57;;;2.60;;
68886;SDS011;55925;51.764;6.402;2023-07-13T12:26:40;6.75;;;2.97;;
68886;SDS011;55925;51.764;6.402;2023-07-13T12:29:06;6.70;;;2.72;;
68886;SDS011;55925;51.764;6.402;2023-07-13T12:31:37;5.57;;;2.50;;
68886;SDS011;55925;51.764;6.402;2023-07-13T12:34:06;6.13;;;2.63;;
68886;SDS011;55925;51.764;6.402;2023-07-13T12:36:34;5.43;;;2.90;;
68886;SDS011;55925;51.764;6.402;2023-07-13T12:39:03;9.98;;;3.08;;
68886;SDS011;55925;51.764;6.402;2023-07-13T12:41:30;6.60;;;3.08;;
68886;SDS011;55925;51.764;6.402;2023-07-13T12:43:56;6.03;;;3.10;;
68886;SDS011;55925;51.764;6.402;2023-07-13T12:46:24;7.72;;;3.45;;
68886;SDS011;55925;51.764;6.402;2023-07-13T12:48:54;8.10;;;3.72;;
68886;SDS011;55925;51.764;6.402;2023-07-13T12:51:24;7.00;;;4.40;;
68886;SDS011;55925;51.764;6.402;2023-07-13T12:53:57;7.68;;;4.15;;
68886;SDS011;55925;51.764;6.402;2023-07-13T12:56:25;10.40;;;4.70;;
68886;SDS011;55925;51.764;6.402;2023-07-13T12:59:25;8.75;;;4.32;;
68886;SDS011;55925;51.764;6.402;2023-07-13T13:01:43;9.00;;;4.10;;
68886;SDS011;55925;51.764;6.402;2023-07-13T13:04:09;8.15;;;3.90;;
68886;SDS011;55925;51.764;6.402;2023-07-13T13:06:37;7.88;;;4.28;;
68886;SDS011;55925;51.764;6.402;2023-07-13T13:09:05;7.50;;;3.45;;
68886;SDS011;55925;51.764;6.402;2023-07-13T13:11:35;6.15;;;3.65;;
68886;SDS011;55925;51.764;6.402;2023-07-13T13:14:01;8.75;;;3.08;;
68886;SDS011;55925;51.764;6.402;2023-07-13T13:18:56;9.82;;;3.72;;
68886;SDS011;55925;51.764;6.402;2023-07-13T13:21:23;8.07;;;3.42;;
68886;SDS011;55925;51.764;6.402;2023-07-13T13:23:50;5.65;;;2.83;;
68886;SDS011;55925;51.764;6.402;2023-07-13T13:26:18;6.25;;;2.67;;
68886;SDS011;55925;51.764;6.402;2023-07-13T13:28:44;5.25;;;2.95;;
68886;SDS011;55925;51.764;6.402;2023-07-13T13:31:12;5.30;;;2.92;;
68886;SDS011;55925;51.764;6.402;2023-07-13T13:33:40;6.00;;;3.22;;
68886;SDS011;55925;51.764;6.402;2023-07-13T13:36:21;6.35;;;3.45;;
68886;SDS011;55925;51.764;6.402;2023-07-13T13:38:48;6.68;;;3.20;;
68886;SDS011;55925;51.764;6.402;2023-07-13T13:41:15;6.53;;;3.35;;
68886;SDS011;55925;51.764;6.402;2023-07-13T13:43:41;5.43;;;2.80;;
68886;SDS011;55925;51.764;6.402;2023-07-13T13:48:40;7.85;;;3.50;;
68886;SDS011;55925;51.764;6.402;2023-07-13T13:51:16;7.07;;;3.00;;
68886;SDS011;55925;51.764;6.402;2023-07-13T13:53:43;8.07;;;3.50;;
68886;SDS011;55925;51.764;6.402;2023-07-13T13:56:10;11.77;;;4.10;;
68886;SDS011;55925;51.764;6.402;2023-07-13T13:58:36;10.63;;;4.63;;
68886;SDS011;55925;51.764;6.402;2023-07-13T14:01:02;8.38;;;4.38;;
68886;SDS011;55925;51.764;6.402;2023-07-13T14:03:31;8.07;;;3.58;;
68886;SDS011;55925;51.764;6.402;2023-07-13T14:05:57;7.63;;;3.65;;
68886;SDS011;55925;51.764;6.402;2023-07-13T14:08:23;7.18;;;3.53;;
68886;SDS011;55925;51.764;6.402;2023-07-13T14:10:49;5.72;;;3.50;;
68886;SDS011;55925;51.764;6.402;2023-07-13T14:13:23;8.10;;;3.70;;
68886;SDS011;55925;51.764;6.402;2023-07-13T14:15:51;8.75;;;3.50;;
68886;SDS011;55925;51.764;6.402;2023-07-13T14:18:17;8.90;;;3.63;;
68886;SDS011;55925;51.764;6.402;2023-07-13T14:20:44;7.75;;;3.40;;
68886;SDS011;55925;51.764;6.402;2023-07-13T14:23:12;7.38;;;3.33;;
68886;SDS011;55925;51.764;6.402;2023-07-13T14:25:38;7.43;;;3.22;;
68886;SDS011;55925;51.764;6.402;2023-07-13T14:28:10;7.88;;;3.42;;
68886;SDS011;55925;51.764;6.402;2023-07-13T14:30:41;5.97;;;3.50;;
68886;SDS011;55925;51.764;6.402;2023-07-13T14:33:10;8.40;;;3.40;;
68886;SDS011;55925;51.764;6.402;2023-07-13T14:35:36;6.65;;;3.13;;
68886;SDS011;55925;51.764;6.402;2023-07-13T14:38:03;7.65;;;3.30;;
68886;SDS011;55925;51.764;6.402;2023-07-13T14:40:30;7.10;;;3.33;;
68886;SDS011;55925;51.764;6.402;2023-07-13T14:42:56;8.25;;;3.60;;
68886;SDS011;55925;51.764;6.402;2023-07-13T14:45:22;6.93;;;3.40;;
68886;SDS011;55925;51.764;6.402;2023-07-13T14:47:48;8.40;;;3.95;;
68886;SDS011;55925;51.764;6.402;2023-07-13T14:50:15;9.88;;;4.50;;
68886;SDS011;55925;51.764;6.402;2023-07-13T14:52:41;9.63;;;4.38;;
68886;SDS011;55925;51.764;6.402;2023-07-13T14:55:14;8.38;;;4.40;;
68886;SDS011;55925;51.764;6.402;2023-07-13T14:57:40;9.02;;;4.50;;
68886;SDS011;55925;51.764;6.402;2023-07-13T15:02:40;9.43;;;4.72;;
68886;SDS011;55925;51.764;6.402;2023-07-13T15:05:14;6.72;;;4.05;;
68886;SDS011;55925;51.764;6.402;2023-07-13T15:07:40;8.23;;;4.30;;
68886;SDS011;55925;51.764;6.402;2023-07-13T15:10:29;8.90;;;4.32;;
68886;SDS011;55925;51.764;6.402;2023-07-13T15:13:01;9.65;;;4.82;;
68886;SDS011;55925;51.764;6.402;2023-07-13T15:15:29;13.00;;;4.63;;
68886;SDS011;55925;51.764;6.402;2023-07-13T15:17:57;10.15;;;4.63;;
68886;SDS011;55925;51.764;6.402;2023-07-13T15:20:28;12.27;;;4.95;;
68886;SDS011;55925;51.764;6.402;2023-07-13T15:22:54;7.85;;;4.50;;
68886;SDS011;55925;51.764;6.402;2023-07-13T15:25:22;7.60;;;4.68;;
68886;SDS011;55925;51.764;6.402;2023-07-13T15:27:49;11.02;;;5.22;;
68886;SDS011;55925;51.764;6.402;2023-07-13T15:30:16;8.65;;;4.55;;